createdAt,value
2016-05-18T00:00:38.759Z,0
2016-05-18T00:01:38.933Z,0
2016-05-18T00:02:38.890Z,0
2016-05-18T00:03:38.908Z,0
2016-05-18T00:04:38.739Z,0
2016-05-18T00:05:38.758Z,0
2016-05-18T00:06:51.322Z,0
2016-05-18T00:07:39.169Z,0
2016-05-18T00:08:38.890Z,0
2016-05-18T00:09:38.924Z,0
2016-05-18T00:10:38.880Z,0
2016-05-18T00:11:38.899Z,0
2016-05-18T00:12:38.885Z,0
2016-05-18T00:13:38.873Z,0
2016-05-18T00:14:38.876Z,0
2016-05-18T00:15:38.878Z,0
2016-05-18T00:16:38.881Z,0
2016-05-18T00:17:38.884Z,0
2016-05-18T00:18:38.887Z,0
2016-05-18T00:19:51.592Z,0
2016-05-18T00:20:38.720Z,0
2016-05-18T00:21:38.862Z,0
2016-05-18T00:22:38.897Z,0
2016-05-18T00:23:38.571Z,0
2016-05-18T00:24:38.714Z,0
2016-05-18T00:25:38.859Z,0
2016-05-18T00:26:38.720Z,0
2016-05-18T00:27:38.847Z,0
2016-05-18T00:28:38.834Z,0
2016-05-18T00:29:38.697Z,0
2016-05-18T00:30:51.450Z,0
2016-05-18T00:31:38.936Z,0
2016-05-18T00:32:38.706Z,0
2016-05-18T00:33:38.848Z,0
2016-05-18T00:34:38.694Z,0
2016-05-18T00:35:51.572Z,0
2016-05-18T00:36:38.747Z,0
2016-05-18T00:37:38.858Z,0
2016-05-18T00:38:38.816Z,0
2016-05-18T00:39:38.677Z,0
2016-05-18T00:40:38.679Z,0
2016-05-18T00:41:51.558Z,0
2016-05-18T00:42:38.888Z,0
2016-05-18T00:43:38.812Z,0
2016-05-18T00:44:38.816Z,0
2016-05-18T00:45:51.537Z,0
2016-05-18T00:46:38.821Z,0
2016-05-18T00:47:38.807Z,0
2016-05-18T00:48:38.685Z,0
2016-05-18T00:49:38.812Z,0
2016-05-18T00:50:38.676Z,0
2016-05-18T00:51:38.490Z,0
2016-05-18T00:52:38.681Z,0
2016-05-18T00:53:51.293Z,0
2016-05-18T00:54:38.811Z,0
2016-05-18T00:55:38.798Z,0
2016-05-18T00:56:38.659Z,0
2016-05-18T00:57:38.787Z,0
2016-05-18T00:58:38.790Z,0
2016-05-18T00:59:38.793Z,0
2016-05-18T01:00:51.374Z,0
2016-05-18T01:01:51.377Z,0
2016-05-18T01:02:38.833Z,0
2016-05-18T01:03:38.772Z,0
2016-05-18T01:04:38.760Z,0
2016-05-18T01:05:38.653Z,0
2016-05-18T01:06:51.516Z,0
2016-05-18T01:07:38.924Z,0
2016-05-18T01:08:38.755Z,0
2016-05-18T01:09:38.633Z,0
2016-05-18T01:10:38.776Z,0
2016-05-18T01:11:38.747Z,0
2016-05-18T01:12:51.484Z,0
2016-05-18T01:13:38.785Z,0
2016-05-18T01:14:38.599Z,0
2016-05-18T01:15:38.617Z,0
2016-05-18T01:16:38.635Z,0
2016-05-18T01:17:57.966Z,0
2016-05-18T01:18:51.219Z,0
2016-05-18T01:19:38.612Z,0
2016-05-18T01:21:04.382Z,0
2016-05-18T01:21:38.727Z,0
2016-05-18T01:22:38.715Z,0
2016-05-18T01:23:38.764Z,0
2016-05-18T01:24:38.750Z,0
2016-05-18T01:25:38.457Z,0
2016-05-18T01:26:38.615Z,0
2016-05-18T01:27:38.743Z,0
2016-05-18T01:28:38.606Z,0
2016-05-18T01:29:38.420Z,0
2016-05-18T01:30:38.767Z,0
2016-05-18T01:31:38.738Z,0
2016-05-18T01:32:38.242Z,0
2016-05-18T01:33:38.588Z,0
2016-05-18T01:34:38.731Z,0
2016-05-18T01:35:38.733Z,0
2016-05-18T01:36:38.580Z,0
2016-05-18T01:37:39.020Z,0
2016-05-18T01:38:38.741Z,0
2016-05-18T01:39:38.729Z,0
2016-05-18T01:40:38.575Z,0
2016-05-18T01:41:38.719Z,0
2016-05-18T01:42:38.721Z,0
2016-05-18T01:43:38.708Z,0
2016-05-18T01:44:57.930Z,0
2016-05-18T01:45:41.713Z,0
2016-05-18T01:46:38.716Z,0
2016-05-18T01:47:38.579Z,0
2016-05-18T01:48:38.582Z,0
2016-05-18T01:49:38.693Z,0
2016-05-18T01:50:38.587Z,0
2016-05-18T01:51:38.698Z,0
2016-05-18T01:52:38.779Z,0
2016-05-18T01:53:38.704Z,0
2016-05-18T01:54:38.690Z,0
2016-05-18T01:55:38.537Z,0
2016-05-18T01:56:38.540Z,0
2016-05-18T01:57:38.528Z,0
2016-05-18T01:58:38.686Z,0
2016-05-18T01:59:38.673Z,0
2016-05-18T02:00:38.676Z,0
2016-05-18T02:01:38.522Z,0
2016-05-18T02:02:38.698Z,0
2016-05-18T02:03:38.653Z,0
2016-05-18T02:04:38.717Z,0
2016-05-18T02:05:38.720Z,0
2016-05-18T02:06:38.677Z,0
2016-05-18T02:07:38.522Z,0
2016-05-18T02:08:38.541Z,0
2016-05-18T02:09:38.669Z,0
2016-05-18T02:10:38.515Z,0
2016-05-18T02:11:38.675Z,0
2016-05-18T02:12:38.661Z,0
2016-05-18T02:13:38.648Z,0
2016-05-18T02:14:38.480Z,0
2016-05-18T02:15:38.638Z,0
2016-05-18T02:16:38.657Z,0
2016-05-18T02:17:38.502Z,0
2016-05-18T02:18:38.177Z,0
2016-05-18T02:19:38.633Z,0
2016-05-18T02:20:38.479Z,0
2016-05-18T02:21:38.654Z,0
2016-05-18T02:22:38.845Z,0
2016-05-18T02:23:38.988Z,0
2016-05-18T02:24:38.475Z,0
2016-05-18T02:26:32.012Z,0
2016-05-18T02:26:45.902Z,0
2016-05-18T02:27:44.498Z,0
2016-05-18T02:28:44.361Z,0
2016-05-18T02:29:44.519Z,0
2016-05-18T02:30:44.210Z,0
2016-05-18T02:31:44.353Z,0
2016-05-18T02:32:44.372Z,0
2016-05-18T02:33:44.483Z,0
2016-05-18T02:34:44.345Z,0
2016-05-18T02:35:44.489Z,0
2016-05-18T02:36:44.523Z,0
2016-05-18T02:37:44.494Z,0
2016-05-18T02:39:03.684Z,0
2016-05-18T02:39:44.359Z,0
2016-05-18T02:40:44.346Z,0
2016-05-18T02:41:44.474Z,0
2016-05-18T02:42:44.305Z,0
2016-05-18T02:43:44.604Z,0
2016-05-18T02:44:44.466Z,0
2016-05-18T02:45:44.452Z,0
2016-05-18T02:46:44.456Z,0
2016-05-18T02:48:03.677Z,0
2016-05-18T02:48:44.446Z,0
2016-05-18T02:49:44.292Z,0
2016-05-18T02:50:44.467Z,0
2016-05-18T02:51:44.266Z,0
2016-05-18T02:52:45.128Z,0
2016-05-18T02:53:44.460Z,0
2016-05-18T02:54:44.274Z,0
2016-05-18T02:55:44.464Z,0
2016-05-18T02:56:44.467Z,0
2016-05-18T02:57:44.439Z,0
2016-05-18T02:58:57.160Z,0
2016-05-18T02:59:44.131Z,0
2016-05-18T03:00:44.447Z,0
2016-05-18T03:01:44.121Z,0
2016-05-18T03:02:44.436Z,0
2016-05-18T03:03:57.001Z,0
2016-05-18T03:04:44.426Z,0
2016-05-18T03:05:44.257Z,0
2016-05-18T03:06:44.259Z,0
2016-05-18T03:07:44.559Z,0
2016-05-18T03:08:44.280Z,0
2016-05-18T03:09:44.424Z,0
2016-05-18T03:10:44.239Z,0
2016-05-18T03:11:44.272Z,0
2016-05-18T03:12:44.417Z,0
2016-05-18T03:13:44.403Z,0
2016-05-18T03:14:44.234Z,0
2016-05-18T03:15:44.393Z,0
2016-05-18T03:16:44.396Z,0
2016-05-18T03:17:44.446Z,0
2016-05-18T03:19:03.432Z,0
2016-05-18T03:19:44.405Z,0
2016-05-18T03:20:44.407Z,0
2016-05-18T03:21:44.284Z,0
2016-05-18T03:22:44.802Z,0
2016-05-18T03:23:44.836Z,0
2016-05-18T03:24:44.371Z,0
2016-05-18T03:25:44.373Z,0
2016-05-18T03:26:44.204Z,0
2016-05-18T03:27:44.363Z,0
2016-05-18T03:28:44.381Z,0
2016-05-18T03:29:44.415Z,0
2016-05-18T03:30:44.246Z,0
2016-05-18T03:32:03.562Z,0
2016-05-18T03:32:44.236Z,0
2016-05-18T03:33:44.286Z,0
2016-05-18T03:34:44.225Z,0
2016-05-18T03:35:44.353Z,0
2016-05-18T03:36:44.356Z,0
2016-05-18T03:37:44.561Z,0
2016-05-18T03:38:44.346Z,0
2016-05-18T03:39:44.347Z,0
2016-05-18T03:40:44.319Z,0
2016-05-18T03:41:44.182Z,0
2016-05-18T03:42:44.341Z,0
2016-05-18T03:43:44.328Z,0
2016-05-18T03:44:44.362Z,0
2016-05-18T03:45:44.177Z,5
2016-05-18T03:46:44.336Z,5
2016-05-18T03:47:56.902Z,5
2016-05-18T03:48:44.201Z,5
2016-05-18T03:49:44.329Z,5
2016-05-18T03:50:44.019Z,5
2016-05-18T03:51:44.334Z,5
2016-05-18T03:52:44.555Z,5
2016-05-18T03:53:44.323Z,5
2016-05-18T03:54:44.327Z,5
2016-05-18T03:55:44.173Z,5
2016-05-18T03:56:44.301Z,5
2016-05-18T03:57:44.319Z,5
2016-05-18T03:58:44.196Z,5
2016-05-18T03:59:44.152Z,10
2016-05-18T04:00:44.311Z,10
2016-05-18T04:01:44.282Z,10
2016-05-18T04:02:43.989Z,10
2016-05-18T04:03:44.304Z,10
2016-05-18T04:04:44.150Z,10
2016-05-18T04:05:44.153Z,10
2016-05-18T04:06:57.031Z,10
2016-05-18T04:07:44.955Z,10
2016-05-18T04:08:44.380Z,10
2016-05-18T04:09:44.273Z,10
2016-05-18T04:10:44.291Z,10
2016-05-18T04:11:44.278Z,10
2016-05-18T04:12:43.969Z,10
2016-05-18T04:13:56.862Z,15
2016-05-18T04:14:44.130Z,15
2016-05-18T04:15:44.274Z,15
2016-05-18T04:17:03.494Z,15
2016-05-18T04:17:43.966Z,15
2016-05-18T04:18:44.157Z,15
2016-05-18T04:19:43.955Z,15
2016-05-18T04:20:44.256Z,15
2016-05-18T04:21:44.258Z,15
2016-05-18T04:23:04.214Z,20
2016-05-18T04:23:44.263Z,20
2016-05-18T04:24:43.969Z,20
2016-05-18T04:25:43.957Z,20
2016-05-18T04:26:44.084Z,20
2016-05-18T04:27:44.244Z,25
2016-05-18T04:28:44.246Z,25
2016-05-18T04:29:44.264Z,25
2016-05-18T04:30:56.954Z,25
2016-05-18T04:31:44.237Z,25
2016-05-18T04:32:44.225Z,25
2016-05-18T04:33:44.275Z,25
2016-05-18T04:34:44.246Z,25
2016-05-18T04:35:44.093Z,30
2016-05-18T04:36:44.237Z,30
2016-05-18T04:37:44.067Z,30
2016-05-18T04:38:44.101Z,30
2016-05-18T04:39:44.229Z,30
2016-05-18T04:40:44.247Z,30
2016-05-18T04:41:44.281Z,30
2016-05-18T04:42:44.221Z,35
2016-05-18T04:43:44.224Z,35
2016-05-18T04:44:44.227Z,35
2016-05-18T04:45:44.245Z,35
2016-05-18T04:47:03.403Z,35
2016-05-18T04:47:44.047Z,40
2016-05-18T04:48:44.049Z,40
2016-05-18T04:49:44.240Z,40
2016-05-18T04:50:44.071Z,40
2016-05-18T04:51:44.058Z,40
2016-05-18T04:52:44.295Z,45
2016-05-18T04:53:44.204Z,45
2016-05-18T04:54:44.207Z,45
2016-05-18T04:55:44.052Z,45
2016-05-18T04:57:03.274Z,50
2016-05-18T04:57:44.229Z,50
2016-05-18T04:58:44.061Z,55
2016-05-18T04:59:43.892Z,55
2016-05-18T05:00:44.238Z,55
2016-05-18T05:01:44.210Z,60
2016-05-18T05:02:44.243Z,65
2016-05-18T05:03:44.309Z,65
2016-05-18T05:04:44.233Z,70
2016-05-18T05:05:44.189Z,75
2016-05-18T05:06:44.192Z,75
2016-05-18T05:07:44.444Z,80
2016-05-18T05:08:56.775Z,85
2016-05-18T05:09:44.185Z,85
2016-05-18T05:10:43.874Z,85
2016-05-18T05:11:44.189Z,80
2016-05-18T05:12:44.192Z,85
2016-05-18T05:13:44.195Z,85
2016-05-18T05:14:44.182Z,85
2016-05-18T05:15:44.028Z,85
2016-05-18T05:16:44.188Z,90
2016-05-18T05:17:44.081Z,95
2016-05-18T05:18:44.194Z,100
2016-05-18T05:19:44.196Z,105
2016-05-18T05:20:44.166Z,115
2016-05-18T05:21:44.013Z,115
2016-05-18T05:23:03.844Z,115
2016-05-18T05:23:44.378Z,115
2016-05-18T05:24:44.022Z,115
2016-05-18T05:25:44.180Z,120
2016-05-18T05:26:44.183Z,120
2016-05-18T05:27:44.013Z,115
2016-05-18T05:28:44.002Z,120
2016-05-18T05:29:44.160Z,115
2016-05-18T05:30:44.006Z,120
2016-05-18T05:31:44.196Z,120
2016-05-18T05:32:44.137Z,120
2016-05-18T05:33:44.171Z,120
2016-05-18T05:34:44.173Z,120
2016-05-18T05:35:45.598Z,120
2016-05-18T05:36:44.006Z,120
2016-05-18T05:37:44.182Z,115
2016-05-18T05:38:44.512Z,115
2016-05-18T05:39:43.843Z,115
2016-05-18T05:40:44.190Z,115
2016-05-18T05:41:44.161Z,110
2016-05-18T05:42:44.179Z,110
2016-05-18T05:43:44.150Z,115
2016-05-18T05:44:44.028Z,110
2016-05-18T05:45:44.203Z,110
2016-05-18T05:47:03.205Z,110
2016-05-18T05:47:44.192Z,115
2016-05-18T05:48:44.211Z,115
2016-05-18T05:49:44.166Z,115
2016-05-18T05:50:44.013Z,115
2016-05-18T05:51:44.188Z,120
2016-05-18T05:52:44.502Z,120
2016-05-18T05:53:44.771Z,120
2016-05-18T05:54:43.993Z,120
2016-05-18T05:55:44.168Z,125
2016-05-18T05:56:44.171Z,120
2016-05-18T05:57:44.158Z,120
2016-05-18T05:59:03.222Z,120
2016-05-18T05:59:43.990Z,120
2016-05-18T06:00:43.993Z,120
2016-05-18T06:01:44.152Z,120
2016-05-18T06:02:44.155Z,125
2016-05-18T06:03:44.017Z,125
2016-05-18T06:04:44.129Z,130
2016-05-18T06:05:43.820Z,130
2016-05-18T06:06:44.181Z,135
2016-05-18T06:07:44.012Z,135
2016-05-18T06:08:44.156Z,140
2016-05-18T06:09:44.158Z,145
2016-05-18T06:10:44.004Z,150
2016-05-18T06:11:44.164Z,160
2016-05-18T06:12:44.166Z,165
2016-05-18T06:13:44.153Z,175
2016-05-18T06:15:03.374Z,180
2016-05-18T06:15:44.174Z,190
2016-05-18T06:16:44.006Z,195
2016-05-18T06:17:43.977Z,200
2016-05-18T06:18:44.135Z,205
2016-05-18T06:19:44.153Z,210
2016-05-18T06:20:44.297Z,215
2016-05-18T06:21:44.003Z,220
2016-05-18T06:22:44.161Z,275
2016-05-18T06:24:03.211Z,230
2016-05-18T06:24:44.167Z,235
2016-05-18T06:25:43.998Z,250
2016-05-18T06:26:44.172Z,355
2016-05-18T06:27:44.160Z,275
2016-05-18T06:28:44.177Z,260
2016-05-18T06:29:44.149Z,255
2016-05-18T06:30:44.199Z,270
2016-05-18T06:31:44.170Z,305
2016-05-18T06:32:43.860Z,305
2016-05-18T06:33:43.910Z,345
2016-05-18T06:34:44.007Z,285
2016-05-18T06:36:03.416Z,415
2016-05-18T06:36:44.184Z,290
2016-05-18T06:37:44.046Z,345
2016-05-18T06:38:43.892Z,405
2016-05-18T06:39:44.176Z,365
2016-05-18T06:40:44.195Z,285
2016-05-18T06:41:44.198Z,290
2016-05-18T06:42:44.231Z,290
2016-05-18T06:43:44.186Z,310
2016-05-18T06:44:44.220Z,295
2016-05-18T06:46:03.302Z,280
2016-05-18T06:46:44.258Z,300
2016-05-18T06:47:44.244Z,310
2016-05-18T06:48:44.045Z,290
2016-05-18T06:49:44.203Z,295
2016-05-18T06:50:44.800Z,290
2016-05-18T06:52:03.287Z,290
2016-05-18T06:52:44.492Z,290
2016-05-18T06:53:44.152Z,305
2016-05-18T06:54:43.936Z,285
2016-05-18T06:55:44.000Z,280
2016-05-18T06:56:44.269Z,280
2016-05-18T06:57:44.319Z,290
2016-05-18T06:58:44.321Z,295
2016-05-18T06:59:44.136Z,295
2016-05-18T07:00:45.499Z,300
2016-05-18T07:01:43.970Z,295
2016-05-18T07:02:44.269Z,295
2016-05-18T07:03:44.147Z,295
2016-05-18T07:04:44.149Z,350
2016-05-18T07:06:03.559Z,310
2016-05-18T07:06:43.999Z,310
2016-05-18T07:07:44.626Z,315
2016-05-18T07:08:44.332Z,315
2016-05-18T07:09:44.335Z,315
2016-05-18T07:10:44.448Z,315
2016-05-18T07:11:44.356Z,320
2016-05-18T07:12:44.359Z,445
2016-05-18T07:13:44.361Z,350
2016-05-18T07:14:44.334Z,325
2016-05-18T07:15:44.789Z,420
2016-05-18T07:16:44.354Z,335
2016-05-18T07:17:57.091Z,375
2016-05-18T07:18:44.359Z,335
2016-05-18T07:19:44.362Z,335
2016-05-18T07:20:45.239Z,325
2016-05-18T07:21:44.367Z,320
2016-05-18T07:22:44.245Z,320
2016-05-18T07:23:43.950Z,320
2016-05-18T07:24:44.235Z,310
2016-05-18T07:25:45.910Z,305
2016-05-18T07:26:44.428Z,305
2016-05-18T07:27:44.243Z,315
2016-05-18T07:28:44.793Z,305
2016-05-18T07:29:44.421Z,305
2016-05-18T07:30:44.752Z,330
2016-05-18T07:32:03.161Z,325
2016-05-18T07:32:44.272Z,315
2016-05-18T07:33:44.462Z,310
2016-05-18T07:34:44.434Z,325
2016-05-18T07:35:44.812Z,330
2016-05-18T07:36:44.455Z,345
2016-05-18T07:37:44.442Z,325
2016-05-18T07:38:44.476Z,340
2016-05-18T07:39:44.290Z,305
2016-05-18T07:40:44.654Z,305
2016-05-18T07:41:57.124Z,300
2016-05-18T07:42:44.377Z,305
2016-05-18T07:43:44.333Z,395
2016-05-18T07:44:44.726Z,355
2016-05-18T07:45:45.542Z,315
2016-05-18T07:46:44.513Z,315
2016-05-18T07:47:44.375Z,340
2016-05-18T07:48:44.550Z,370
2016-05-18T07:49:44.536Z,335
2016-05-18T07:51:03.820Z,340
2016-05-18T07:51:44.558Z,335
2016-05-18T07:52:44.372Z,335
2016-05-18T07:53:45.016Z,340
2016-05-18T07:54:44.409Z,445
2016-05-18T07:55:45.116Z,355
2016-05-18T07:57:03.774Z,335
2016-05-18T07:57:44.589Z,345
2016-05-18T07:58:44.607Z,335
2016-05-18T07:59:44.627Z,335
2016-05-18T08:00:45.036Z,340
2016-05-18T08:01:44.475Z,345
2016-05-18T08:02:44.463Z,340
2016-05-18T08:03:44.637Z,340
2016-05-18T08:04:50.718Z,350
2016-05-18T08:05:46.518Z,345
2016-05-18T08:06:44.645Z,350
2016-05-18T08:07:44.632Z,355
2016-05-18T08:08:44.885Z,345
2016-05-18T08:09:44.654Z,340
2016-05-18T08:10:45.671Z,355
2016-05-18T08:11:44.690Z,360
2016-05-18T08:12:44.504Z,360
2016-05-18T08:13:44.679Z,390
2016-05-18T08:14:44.510Z,385
2016-05-18T08:15:44.715Z,365
2016-05-18T08:16:57.437Z,355
2016-05-18T08:17:50.877Z,355
2016-05-18T08:18:44.598Z,335
2016-05-18T08:19:44.555Z,375
2016-05-18T08:20:45.714Z,425
2016-05-18T08:21:44.748Z,390
2016-05-18T08:22:44.767Z,340
2016-05-18T08:23:44.628Z,335
2016-05-18T08:25:03.647Z,360
2016-05-18T08:26:04.040Z,325
2016-05-18T08:26:44.620Z,320
2016-05-18T08:27:44.774Z,345
2016-05-18T08:28:44.836Z,330
2016-05-18T08:29:44.864Z,315
2016-05-18T08:30:45.815Z,315
2016-05-18T08:31:44.970Z,360
2016-05-18T08:32:45.023Z,350
2016-05-18T08:33:44.869Z,335
2016-05-18T08:35:04.123Z,330
2016-05-18T08:35:45.671Z,325
2016-05-18T08:36:44.956Z,325
2016-05-18T08:37:44.971Z,340
2016-05-18T08:38:45.885Z,325
2016-05-18T08:39:45.174Z,330
2016-05-18T08:40:45.401Z,325
2016-05-18T08:41:45.018Z,315
2016-05-18T08:42:45.011Z,330
2016-05-18T08:43:45.219Z,345
2016-05-18T08:44:45.224Z,325
2016-05-18T08:45:45.119Z,320
2016-05-18T08:46:57.953Z,315
2016-05-18T08:47:45.238Z,320
2016-05-18T08:48:45.101Z,325
2016-05-18T08:49:45.245Z,320
2016-05-18T08:50:46.107Z,315
2016-05-18T08:51:57.971Z,315
2016-05-18T08:52:45.255Z,305
2016-05-18T08:53:45.289Z,300
2016-05-18T08:54:45.292Z,300
2016-05-18T08:55:46.592Z,320
2016-05-18T08:57:04.500Z,310
2016-05-18T08:57:45.159Z,290
2016-05-18T08:58:45.161Z,285
2016-05-18T08:59:45.164Z,315
2016-05-18T09:00:45.339Z,320
2016-05-18T09:02:04.373Z,360
2016-05-18T09:02:45.204Z,385
2016-05-18T09:03:45.175Z,335
2016-05-18T09:04:45.366Z,335
2016-05-18T09:06:04.540Z,330
2016-05-18T09:06:45.058Z,345
2016-05-18T09:07:45.357Z,355
2016-05-18T09:08:45.782Z,385
2016-05-18T09:09:45.363Z,375
2016-05-18T09:10:58.101Z,360
2016-05-18T09:11:46.040Z,360
2016-05-18T09:12:45.387Z,370
2016-05-18T09:13:45.234Z,365
2016-05-18T09:14:45.408Z,350
2016-05-18T09:15:58.161Z,375
2016-05-18T09:16:45.398Z,350
2016-05-18T09:17:45.432Z,345
2016-05-18T09:18:45.434Z,340
2016-05-18T09:19:45.343Z,335
2016-05-18T09:20:45.720Z,335
2016-05-18T09:21:45.458Z,340
2016-05-18T09:23:04.508Z,345
2016-05-18T09:23:45.854Z,355
2016-05-18T09:24:45.450Z,360
2016-05-18T09:25:46.000Z,370
2016-05-18T09:26:45.331Z,365
2016-05-18T09:28:04.693Z,360
2016-05-18T09:28:45.477Z,360
2016-05-18T09:29:45.479Z,370
2016-05-18T09:30:45.326Z,355
2016-05-18T09:31:58.110Z,350
2016-05-18T09:32:45.519Z,335
2016-05-18T09:33:45.365Z,325
2016-05-18T09:34:45.508Z,325
2016-05-18T09:35:45.371Z,325
2016-05-18T09:36:58.263Z,305
2016-05-18T09:37:45.579Z,300
2016-05-18T09:38:45.535Z,305
2016-05-18T09:39:45.397Z,295
2016-05-18T09:40:45.571Z,305
2016-05-18T09:41:45.246Z,295
2016-05-18T09:42:58.295Z,350
2016-05-18T09:43:58.017Z,350
2016-05-18T09:44:45.629Z,290
2016-05-18T09:45:45.570Z,295
2016-05-18T09:46:45.447Z,300
2016-05-18T09:47:45.465Z,320
2016-05-18T09:48:45.640Z,345
2016-05-18T09:49:58.361Z,310
2016-05-18T09:50:51.926Z,305
2016-05-18T09:52:04.820Z,305
2016-05-18T09:52:45.636Z,300
2016-05-18T09:54:48.250Z,285
2016-05-18T09:55:00.953Z,285
2016-05-18T09:56:00.753Z,280
2016-05-18T09:57:00.787Z,285
2016-05-18T09:58:00.633Z,295
2016-05-18T09:59:54.466Z,305
2016-05-18T10:00:08.529Z,310
2016-05-18T10:01:07.125Z,310
2016-05-18T10:02:06.972Z,310
2016-05-18T10:03:13.413Z,310
2016-05-18T10:04:06.852Z,310
2016-05-18T10:05:06.996Z,310
2016-05-18T10:06:07.061Z,315
2016-05-18T10:07:26.204Z,320
2016-05-18T10:08:07.019Z,320
2016-05-18T10:09:06.725Z,335
2016-05-18T10:10:07.149Z,340
2016-05-18T10:11:07.199Z,345
2016-05-18T10:12:07.233Z,345
2016-05-18T10:13:07.032Z,345
2016-05-18T10:14:07.207Z,345
2016-05-18T10:15:07.210Z,340
2016-05-18T10:16:07.134Z,340
2016-05-18T10:17:07.184Z,340
2016-05-18T10:18:07.218Z,335
2016-05-18T10:19:07.221Z,335
2016-05-18T10:20:07.286Z,335
2016-05-18T10:21:13.492Z,330
2016-05-18T10:22:06.964Z,325
2016-05-18T10:23:07.262Z,325
2016-05-18T10:24:20.078Z,330
2016-05-18T10:25:07.112Z,340
2016-05-18T10:26:07.114Z,345
2016-05-18T10:27:07.273Z,375
2016-05-18T10:28:07.136Z,360
2016-05-18T10:29:08.544Z,370
2016-05-18T10:30:07.297Z,370
2016-05-18T10:31:07.316Z,420
2016-05-18T10:32:07.147Z,420
2016-05-18T10:33:07.352Z,420
2016-05-18T10:34:07.308Z,360
2016-05-18T10:35:19.889Z,355
2016-05-18T10:36:07.095Z,350
2016-05-18T10:37:07.316Z,355
2016-05-18T10:38:07.802Z,355
2016-05-18T10:39:07.212Z,340
2016-05-18T10:40:07.355Z,360
2016-05-18T10:41:20.108Z,390
2016-05-18T10:42:07.236Z,335
2016-05-18T10:43:07.613Z,345
2016-05-18T10:44:07.366Z,350
2016-05-18T10:45:26.479Z,360
2016-05-18T10:46:07.387Z,360
2016-05-18T10:47:07.515Z,370
2016-05-18T10:48:07.424Z,400
2016-05-18T10:49:07.412Z,425
2016-05-18T10:50:20.148Z,390
2016-05-18T10:51:07.337Z,415
2016-05-18T10:52:07.279Z,385
2016-05-18T10:53:08.203Z,385
2016-05-18T10:54:07.300Z,385
2016-05-18T10:55:26.662Z,340
2016-05-18T10:56:07.461Z,355
2016-05-18T10:57:07.511Z,385
2016-05-18T10:58:07.295Z,380
2016-05-18T10:59:20.313Z,390
2016-05-18T11:00:07.331Z,365
2016-05-18T11:01:07.584Z,385
2016-05-18T11:02:07.509Z,385
2016-05-18T11:03:07.558Z,355
2016-05-18T11:04:07.577Z,350
2016-05-18T11:05:07.532Z,330
2016-05-18T11:06:26.722Z,335
2016-05-18T11:07:07.366Z,340
2016-05-18T11:08:07.228Z,340
2016-05-18T11:09:13.668Z,350
2016-05-18T11:10:07.373Z,345
2016-05-18T11:11:07.283Z,340
2016-05-18T11:12:07.582Z,345
2016-05-18T11:13:07.413Z,350
2016-05-18T11:14:07.588Z,350
2016-05-18T11:15:07.418Z,355
2016-05-18T11:16:07.420Z,360
2016-05-18T11:17:20.330Z,360
2016-05-18T11:18:07.442Z,365
2016-05-18T11:19:07.460Z,365
2016-05-18T11:20:07.650Z,360
2016-05-18T11:21:07.653Z,355
2016-05-18T11:22:20.328Z,350
2016-05-18T11:23:07.643Z,350
2016-05-18T11:24:07.661Z,355
2016-05-18T11:25:26.867Z,350
2016-05-18T11:26:07.526Z,350
2016-05-18T11:27:07.653Z,355
2016-05-18T11:28:07.642Z,365
2016-05-18T11:29:07.675Z,365
2016-05-18T11:30:20.411Z,360
2016-05-18T11:31:20.102Z,355
2016-05-18T11:32:07.667Z,345
2016-05-18T11:33:07.904Z,340
2016-05-18T11:34:07.828Z,340
2016-05-18T11:35:07.722Z,340
2016-05-18T11:36:07.741Z,335
2016-05-18T11:37:07.555Z,380
2016-05-18T11:38:08.433Z,380
2016-05-18T11:39:07.733Z,350
2016-05-18T11:40:07.594Z,360
2016-05-18T11:41:07.754Z,375
2016-05-18T11:42:07.725Z,385
2016-05-18T11:43:07.791Z,350
2016-05-18T11:44:07.574Z,365
2016-05-18T11:45:14.077Z,355
2016-05-18T11:46:07.782Z,345
2016-05-18T11:47:07.770Z,345
2016-05-18T11:48:07.820Z,340
2016-05-18T11:49:20.525Z,340
2016-05-18T11:50:07.810Z,325
2016-05-18T11:51:07.796Z,315
2016-05-18T11:52:07.486Z,320
2016-05-18T11:53:08.240Z,345
2016-05-18T11:54:07.898Z,330
2016-05-18T11:55:14.104Z,325
2016-05-18T11:56:07.919Z,325
2016-05-18T11:57:07.828Z,330
2016-05-18T11:58:07.534Z,335
2016-05-18T11:59:07.692Z,340
2016-05-18T12:00:08.023Z,335
2016-05-18T12:01:07.855Z,335
2016-05-18T12:02:20.591Z,340
2016-05-18T12:03:07.891Z,340
2016-05-18T12:04:07.894Z,345
2016-05-18T12:05:07.959Z,350
2016-05-18T12:06:07.977Z,355
2016-05-18T12:07:07.933Z,355
2016-05-18T12:08:08.639Z,355
2016-05-18T12:09:11.047Z,355
2016-05-18T12:10:07.769Z,360
2016-05-18T12:11:08.022Z,365
2016-05-18T12:12:20.681Z,405
2016-05-18T12:13:07.637Z,420
2016-05-18T12:14:07.936Z,370
2016-05-18T12:15:07.954Z,355
2016-05-18T12:16:20.676Z,355
2016-05-18T12:17:07.819Z,345
2016-05-18T12:18:07.962Z,330
2016-05-18T12:19:07.857Z,320
2016-05-18T12:20:11.140Z,315
2016-05-18T12:21:08.095Z,315
2016-05-18T12:22:08.021Z,305
2016-05-18T12:23:09.054Z,300
2016-05-18T12:24:11.822Z,300
2016-05-18T12:25:11.404Z,295
2016-05-18T12:26:08.156Z,295
2016-05-18T12:27:08.034Z,300
2016-05-18T12:28:08.083Z,290
2016-05-18T12:29:08.039Z,285
2016-05-18T12:30:13.526Z,280
2016-05-18T12:31:20.513Z,275
2016-05-18T12:32:07.922Z,275
2016-05-18T12:33:07.941Z,285
2016-05-18T12:34:20.833Z,300
2016-05-18T12:35:10.837Z,310
2016-05-18T12:36:07.980Z,320
2016-05-18T12:37:07.935Z,315
2016-05-18T12:38:08.283Z,300
2016-05-18T12:39:08.722Z,290
2016-05-18T12:40:09.959Z,295
2016-05-18T12:41:08.055Z,290
2016-05-18T12:42:08.058Z,285
2016-05-18T12:43:07.827Z,285
2016-05-18T12:44:07.970Z,300
2016-05-18T12:45:20.910Z,325
2016-05-18T12:46:07.960Z,305
2016-05-18T12:47:08.166Z,305
2016-05-18T12:48:08.199Z,350
2016-05-18T12:49:08.170Z,360
2016-05-18T12:50:11.565Z,355
2016-05-18T12:51:14.567Z,335
2016-05-18T12:52:08.163Z,345
2016-05-18T12:53:08.354Z,330
2016-05-18T12:54:08.575Z,290
2016-05-18T12:55:11.812Z,265
2016-05-18T12:56:08.284Z,260
2016-05-18T12:57:08.084Z,265
2016-05-18T12:59:01.761Z,270
2016-05-18T12:59:14.261Z,270
2016-05-18T13:00:17.013Z,285
2016-05-18T13:01:14.500Z,280
2016-05-18T13:02:14.456Z,290
2016-05-18T13:03:33.647Z,295
2016-05-18T13:04:14.289Z,290
2016-05-18T13:05:19.402Z,290
2016-05-18T13:06:14.311Z,295
2016-05-18T13:07:14.283Z,315
2016-05-18T13:08:14.597Z,330
2016-05-18T13:09:14.475Z,345
2016-05-18T13:10:16.478Z,345
2016-05-18T13:11:14.339Z,350
2016-05-18T13:12:14.514Z,350
2016-05-18T13:13:27.219Z,360
2016-05-18T13:14:14.519Z,355
2016-05-18T13:15:14.210Z,345
2016-05-18T13:16:14.291Z,370
2016-05-18T13:17:27.262Z,355
2016-05-18T13:18:14.405Z,375
2016-05-18T13:19:14.596Z,365
2016-05-18T13:20:17.520Z,355
2016-05-18T13:21:14.476Z,365
2016-05-18T13:22:14.573Z,375
2016-05-18T13:23:15.137Z,365
2016-05-18T13:24:15.078Z,355
2016-05-18T13:25:27.189Z,340
2016-05-18T13:26:14.629Z,310
2016-05-18T13:28:23.932Z,355
2016-05-18T13:29:24.262Z,355
2016-05-18T13:30:23.625Z,335
2016-05-18T13:31:24.096Z,320
2016-05-18T13:32:23.803Z,310
2016-05-18T13:33:24.102Z,300
2016-05-18T13:34:24.089Z,280
2016-05-18T13:35:23.967Z,290
2016-05-18T13:36:24.111Z,260
2016-05-18T13:37:24.409Z,270
2016-05-18T13:38:24.725Z,240
2016-05-18T13:39:24.164Z,225
2016-05-18T13:40:23.980Z,220
2016-05-18T13:41:24.155Z,210
2016-05-18T13:42:24.016Z,210
2016-05-18T13:43:24.175Z,220
2016-05-18T13:44:36.822Z,225
2016-05-18T13:45:24.181Z,225
2016-05-18T13:46:23.902Z,225
2016-05-18T13:47:24.202Z,220
2016-05-18T13:48:24.205Z,215
2016-05-18T13:49:24.223Z,210
2016-05-18T13:50:23.991Z,210
2016-05-18T13:51:25.572Z,215
2016-05-18T13:52:24.090Z,230
2016-05-18T13:53:24.452Z,245
2016-05-18T13:54:24.251Z,260
2016-05-18T13:55:43.304Z,255
2016-05-18T13:56:23.960Z,255
2016-05-18T13:57:24.260Z,255
2016-05-18T13:58:24.247Z,265
2016-05-18T13:59:24.125Z,270
2016-05-18T14:00:36.987Z,285
2016-05-18T14:01:24.131Z,290
2016-05-18T14:02:24.180Z,305
2016-05-18T14:03:24.167Z,310
2016-05-18T14:04:24.342Z,305
2016-05-18T14:05:24.328Z,310
2016-05-18T14:06:24.144Z,295
2016-05-18T14:07:37.444Z,300